sensor_id;sensor_type;location;lat;lon;timestamp;pressure;altitude;pressure_sealevel;temperature;humidity
70544;BME280;58097;48.364;-1.224;2023-09-18T00:00:47;98645.06;;;19.48;85.09
70544;BME280;58097;48.364;-1.224;2023-09-18T00:03:15;98655.16;;;19.49;85.14
70544;BME280;58097;48.364;-1.224;2023-09-18T00:05:43;98654.66;;;19.53;84.85
70544;BME280;58097;48.364;-1.224;2023-09-18T00:08:08;98645.78;;;19.56;85.39
70544;BME280;58097;48.364;-1.224;2023-09-18T00:10:34;98648.09;;;19.59;85.05
70544;BME280;58097;48.364;-1.224;2023-09-18T00:12:59;98651.25;;;19.62;84.83
70544;BME280;58097;48.364;-1.224;2023-09-18T00:15:26;98650.38;;;19.62;85.13
70544;BME280;58097;48.364;-1.224;2023-09-18T00:17:51;98648.44;;;19.62;85.04
70544;BME280;58097;48.364;-1.224;2023-09-18T00:20:17;98652.09;;;19.63;85.64
70544;BME280;58097;48.364;-1.224;2023-09-18T00:22:43;98649.28;;;19.63;85.16
70544;BME280;58097;48.364;-1.224;2023-09-18T00:25:08;98654.03;;;19.62;85.29
70544;BME280;58097;48.364;-1.224;2023-09-18T00:27:33;98652.84;;;19.58;85.76
70544;BME280;58097;48.364;-1.224;2023-09-18T00:30:01;98659.31;;;19.59;85.74
70544;BME280;58097;48.364;-1.224;2023-09-18T00:32:27;98656.16;;;19.55;86.15
70544;BME280;58097;48.364;-1.224;2023-09-18T00:34:53;98651.66;;;19.54;85.79
70544;BME280;58097;48.364;-1.224;2023-09-18T00:37:18;98651.66;;;19.54;85.74
70544;BME280;58097;48.364;-1.224;2023-09-18T00:39:44;98644.81;;;19.50;86.37
70544;BME280;58097;48.364;-1.224;2023-09-18T00:42:09;98649.81;;;19.48;86.62
70544;BME280;58097;48.364;-1.224;2023-09-18T00:44:39;98649.56;;;19.49;86.57
70544;BME280;58097;48.364;-1.224;2023-09-18T00:47:07;98646.78;;;19.49;86.29
70544;BME280;58097;48.364;-1.224;2023-09-18T00:49:32;98647.88;;;19.48;86.78
70544;BME280;58097;48.364;-1.224;2023-09-18T00:51:58;98654.47;;;19.42;87.74
70544;BME280;58097;48.364;-1.224;2023-09-18T00:54:24;98643.78;;;19.39;87.96
70544;BME280;58097;48.364;-1.224;2023-09-18T00:56:49;98648.53;;;19.39;88.18
70544;BME280;58097;48.364;-1.224;2023-09-18T00:59:19;98647.69;;;19.27;89.64
70544;BME280;58097;48.364;-1.224;2023-09-18T01:01:45;98641.13;;;19.21;90.04
70544;BME280;58097;48.364;-1.224;2023-09-18T01:04:12;98638.34;;;19.21;89.93
70544;BME280;58097;48.364;-1.224;2023-09-18T01:06:38;98642.50;;;19.18;89.97
70544;BME280;58097;48.364;-1.224;2023-09-18T01:09:03;98639.19;;;19.22;90.12
70544;BME280;58097;48.364;-1.224;2023-09-18T01:11:45;98640.63;;;19.24;88.78
70544;BME280;58097;48.364;-1.224;2023-09-18T01:14:21;98637.94;;;19.29;89.35
70544;BME280;58097;48.364;-1.224;2023-09-18T01:16:58;98634.03;;;19.30;89.51
70544;BME280;58097;48.364;-1.224;2023-09-18T01:19:41;98646.00;;;19.26;91.09
70544;BME280;58097;48.364;-1.224;2023-09-18T01:22:09;98641.25;;;19.26;91.20
70544;BME280;58097;48.364;-1.224;2023-09-18T01:24:35;98638.19;;;19.28;89.95
70544;BME280;58097;48.364;-1.224;2023-09-18T01:27:02;98639.63;;;19.30;89.60
70544;BME280;58097;48.364;-1.224;2023-09-18T01:29:28;98636.34;;;19.33;89.91
70544;BME280;58097;48.364;-1.224;2023-09-18T01:31:54;98630.72;;;19.33;89.90
70544;BME280;58097;48.364;-1.224;2023-09-18T01:34:21;98628.19;;;19.32;90.10
70544;BME280;58097;48.364;-1.224;2023-09-18T01:36:51;98634.78;;;19.37;89.63
70544;BME280;58097;48.364;-1.224;2023-09-18T01:39:17;98631.47;;;19.40;90.26
70544;BME280;58097;48.364;-1.224;2023-09-18T01:41:43;98629.88;;;19.44;90.29
70544;BME280;58097;48.364;-1.224;2023-09-18T01:44:09;98619.41;;;19.40;90.91
70544;BME280;58097;48.364;-1.224;2023-09-18T01:46:34;98616.72;;;19.33;91.96
70544;BME280;58097;48.364;-1.224;2023-09-18T01:49:03;98622.94;;;19.35;90.88
70544;BME280;58097;48.364;-1.224;2023-09-18T01:51:29;98613.56;;;19.41;91.25
70544;BME280;58097;48.364;-1.224;2023-09-18T01:53:55;98611.34;;;19.43;90.67
70544;BME280;58097;48.364;-1.224;2023-09-18T01:56:20;98608.06;;;19.46;91.02
70544;BME280;58097;48.364;-1.224;2023-09-18T01:58:46;98599.91;;;19.45;91.13
70544;BME280;58097;48.364;-1.224;2023-09-18T02:01:11;98606.59;;;19.44;91.00
70544;BME280;58097;48.364;-1.224;2023-09-18T02:03:36;98603.19;;;19.42;90.36
70544;BME280;58097;48.364;-1.224;2023-09-18T02:06:03;98610.16;;;19.39;90.58
70544;BME280;58097;48.364;-1.224;2023-09-18T02:08:28;98609.94;;;19.29;92.94
70544;BME280;58097;48.364;-1.224;2023-09-18T02:10:53;98612.78;;;19.17;93.66
70544;BME280;58097;48.364;-1.224;2023-09-18T02:13:19;98612.78;;;19.17;92.15
70544;BME280;58097;48.364;-1.224;2023-09-18T02:15:44;98621.69;;;19.14;92.64
70544;BME280;58097;48.364;-1.224;2023-09-18T02:18:10;98609.88;;;19.12;93.61
70544;BME280;58097;48.364;-1.224;2023-09-18T02:20:41;98608.53;;;19.15;92.69
70544;BME280;58097;48.364;-1.224;2023-09-18T02:23:07;98610.22;;;19.16;92.96
70544;BME280;58097;48.364;-1.224;2023-09-18T02:25:32;98608.03;;;19.18;95.33
70544;BME280;58097;48.364;-1.224;2023-09-18T02:27:57;98609.72;;;19.19;94.56
70544;BME280;58097;48.364;-1.224;2023-09-18T02:30:23;98606.53;;;19.27;94.65
70544;BME280;58097;48.364;-1.224;2023-09-18T02:32:48;98604.22;;;19.24;95.78
70544;BME280;58097;48.364;-1.224;2023-09-18T02:35:14;98610.19;;;19.28;94.82
70544;BME280;58097;48.364;-1.224;2023-09-18T02:37:39;98619.44;;;19.28;96.50
70544;BME280;58097;48.364;-1.224;2023-09-18T02:40:05;98606.53;;;19.27;96.08
70544;BME280;58097;48.364;-1.224;2023-09-18T02:42:31;98604.06;;;19.31;95.73
70544;BME280;58097;48.364;-1.224;2023-09-18T02:44:56;98606.38;;;19.34;95.67
70544;BME280;58097;48.364;-1.224;2023-09-18T02:47:21;98611.97;;;19.34;96.48
70544;BME280;58097;48.364;-1.224;2023-09-18T02:49:47;98609.56;;;19.37;95.51
70544;BME280;58097;48.364;-1.224;2023-09-18T02:52:12;98605.03;;;19.36;96.37
70544;BME280;58097;48.364;-1.224;2023-09-18T02:54:37;98608.47;;;19.38;95.37
70544;BME280;58097;48.364;-1.224;2023-09-18T02:57:03;98602.22;;;19.36;96.33
70544;BME280;58097;48.364;-1.224;2023-09-18T02:59:28;98610.88;;;19.35;96.65
70544;BME280;58097;48.364;-1.224;2023-09-18T03:01:53;98599.06;;;19.33;96.52
70544;BME280;58097;48.364;-1.224;2023-09-18T03:04:19;98607.72;;;19.31;96.58
70544;BME280;58097;48.364;-1.224;2023-09-18T03:06:44;98595.69;;;19.31;96.53
70544;BME280;58097;48.364;-1.224;2023-09-18T03:09:10;98595.94;;;19.29;96.33
70544;BME280;58097;48.364;-1.224;2023-09-18T03:11:35;98593.97;;;19.30;97.01
70544;BME280;58097;48.364;-1.224;2023-09-18T03:14:00;98598.13;;;19.27;97.04
70544;BME280;58097;48.364;-1.224;2023-09-18T03:16:26;98596.94;;;19.23;97.63
70544;BME280;58097;48.364;-1.224;2023-09-18T03:18:51;98598.53;;;19.19;98.00
70544;BME280;58097;48.364;-1.224;2023-09-18T03:21:16;98593.28;;;19.23;96.83
70544;BME280;58097;48.364;-1.224;2023-09-18T03:23:42;98598.03;;;19.22;96.71
70544;BME280;58097;48.364;-1.224;2023-09-18T03:26:07;98600.94;;;19.27;95.94
70544;BME280;58097;48.364;-1.224;2023-09-18T03:28:33;98599.38;;;19.19;96.87
70544;BME280;58097;48.364;-1.224;2023-09-18T03:30:58;98598.53;;;19.19;97.21
70544;BME280;58097;48.364;-1.224;2023-09-18T03:33:23;98594.28;;;19.16;96.62
70544;BME280;58097;48.364;-1.224;2023-09-18T03:35:50;98591.38;;;19.11;97.40
70544;BME280;58097;48.364;-1.224;2023-09-18T03:38:16;98595.88;;;19.12;96.38
70544;BME280;58097;48.364;-1.224;2023-09-18T03:40:41;98596.22;;;19.16;97.00
70544;BME280;58097;48.364;-1.224;2023-09-18T03:43:07;98604.88;;;19.14;96.78
70544;BME280;58097;48.364;-1.224;2023-09-18T03:45:33;98602.09;;;19.14;96.06
70544;BME280;58097;48.364;-1.224;2023-09-18T03:47:58;98602.94;;;19.15;96.16
70544;BME280;58097;48.364;-1.224;2023-09-18T03:50:23;98609.88;;;19.12;96.51
70544;BME280;58097;48.364;-1.224;2023-09-18T03:52:49;98603.78;;;19.15;95.25
70544;BME280;58097;48.364;-1.224;2023-09-18T03:55:14;98599.78;;;19.11;95.22
70544;BME280;58097;48.364;-1.224;2023-09-18T03:57:39;98599.03;;;19.04;96.32
70544;BME280;58097;48.364;-1.224;2023-09-18T04:00:06;98594.44;;;19.10;95.66
70544;BME280;58097;48.364;-1.224;2023-09-18T04:02:33;98596.59;;;19.08;95.73
70544;BME280;58097;48.364;-1.224;2023-09-18T04:04:58;98591.88;;;19.08;94.91
70544;BME280;58097;48.364;-1.224;2023-09-18T04:07:23;98606.47;;;19.10;94.64
70544;BME280;58097;48.364;-1.224;2023-09-18T04:09:49;98600.03;;;19.10;94.64
70544;BME280;58097;48.364;-1.224;2023-09-18T04:12:14;98606.09;;;19.07;95.03
70544;BME280;58097;48.364;-1.224;2023-09-18T04:14:40;98600.75;;;19.05;95.34
70544;BME280;58097;48.364;-1.224;2023-09-18T04:17:06;98593.94;;;19.01;95.66
70544;BME280;58097;48.364;-1.224;2023-09-18T04:19:31;98590.94;;;18.91;96.70
70544;BME280;58097;48.364;-1.224;2023-09-18T04:21:57;98592.88;;;18.91;96.36
70544;BME280;58097;48.364;-1.224;2023-09-18T04:24:22;98597.63;;;18.90;96.17
70544;BME280;58097;48.364;-1.224;2023-09-18T04:26:49;98605.19;;;18.90;95.86
70544;BME280;58097;48.364;-1.224;2023-09-18T04:29:16;98601.19;;;18.85;96.73
70544;BME280;58097;48.364;-1.224;2023-09-18T04:31:41;98596.69;;;18.84;96.25
70544;BME280;58097;48.364;-1.224;2023-09-18T04:34:07;98602.53;;;18.83;96.64
70544;BME280;58097;48.364;-1.224;2023-09-18T04:36:32;98607.28;;;18.82;96.88
70544;BME280;58097;48.364;-1.224;2023-09-18T04:38:57;98603.25;;;18.78;96.37
70544;BME280;58097;48.364;-1.224;2023-09-18T04:41:23;98598.28;;;18.80;96.58
70544;BME280;58097;48.364;-1.224;2023-09-18T04:43:48;98605.31;;;18.83;95.59
70544;BME280;58097;48.364;-1.224;2023-09-18T04:46:14;98603.13;;;18.73;96.61
70544;BME280;58097;48.364;-1.224;2023-09-18T04:48:39;98600.81;;;18.70;96.44
70544;BME280;58097;48.364;-1.224;2023-09-18T04:51:04;98607.03;;;18.72;95.78
70544;BME280;58097;48.364;-1.224;2023-09-18T04:53:31;98603.63;;;18.70;95.76
70544;BME280;58097;48.364;-1.224;2023-09-18T04:55:57;98603.97;;;18.74;95.83
70544;BME280;58097;48.364;-1.224;2023-09-18T04:58:23;98601.19;;;18.74;95.00
70544;BME280;58097;48.364;-1.224;2023-09-18T05:00:59;98602.03;;;18.74;94.54
70544;BME280;58097;48.364;-1.224;2023-09-18T05:03:25;98610.69;;;18.73;94.93
70544;BME280;58097;48.364;-1.224;2023-09-18T05:05:52;98613.47;;;18.73;95.12
70544;BME280;58097;48.364;-1.224;2023-09-18T05:08:18;98608.38;;;18.70;94.60
70544;BME280;58097;48.364;-1.224;2023-09-18T05:10:43;98601.81;;;18.64;95.16
70544;BME280;58097;48.364;-1.224;2023-09-18T05:13:09;98603.75;;;18.64;95.79
70544;BME280;58097;48.364;-1.224;2023-09-18T05:15:35;98599.63;;;18.66;95.57
70544;BME280;58097;48.364;-1.224;2023-09-18T05:18:00;98612.03;;;18.70;95.44
70544;BME280;58097;48.364;-1.224;2023-09-18T05:20:28;98608.63;;;18.68;95.41
70544;BME280;58097;48.364;-1.224;2023-09-18T05:22:55;98597.69;;;18.67;95.87
70544;BME280;58097;48.364;-1.224;2023-09-18T05:25:22;98605.22;;;18.66;95.88
70544;BME280;58097;48.364;-1.224;2023-09-18T05:27:52;98603.13;;;18.62;96.79
70544;BME280;58097;48.364;-1.224;2023-09-18T05:30:25;98597.19;;;18.58;96.83
70544;BME280;58097;48.364;-1.224;2023-09-18T05:32:54;98599.97;;;18.58;97.11
70544;BME280;58097;48.364;-1.224;2023-09-18T05:35:19;98599.97;;;18.58;96.53
70544;BME280;58097;48.364;-1.224;2023-09-18T05:37:45;98599.38;;;18.56;97.65
70544;BME280;58097;48.364;-1.224;2023-09-18T05:40:11;98604.59;;;18.52;97.84
70544;BME280;58097;48.364;-1.224;2023-09-18T05:42:41;98599.25;;;18.51;97.72
70544;BME280;58097;48.364;-1.224;2023-09-18T05:45:11;98601.31;;;18.44;98.61
70544;BME280;58097;48.364;-1.224;2023-09-18T05:47:37;98609.44;;;18.45;98.67
70544;BME280;58097;48.364;-1.224;2023-09-18T05:50:07;98603.75;;;18.40;99.33
70544;BME280;58097;48.364;-1.224;2023-09-18T05:52:33;98599.25;;;18.39;98.68
70544;BME280;58097;48.364;-1.224;2023-09-18T05:55:02;98601.53;;;18.42;98.53
70544;BME280;58097;48.364;-1.224;2023-09-18T05:57:28;98597.28;;;18.40;98.95
70544;BME280;58097;48.364;-1.224;2023-09-18T05:59:56;98595.34;;;18.40;98.99
70544;BME280;58097;48.364;-1.224;2023-09-18T06:02:23;98602.16;;;18.44;98.47
70544;BME280;58097;48.364;-1.224;2023-09-18T06:04:54;98599.97;;;18.46;98.39
70544;BME280;58097;48.364;-1.224;2023-09-18T06:07:20;98609.59;;;18.50;98.11
70544;BME280;58097;48.364;-1.224;2023-09-18T06:09:48;98606.31;;;18.53;97.92
70544;BME280;58097;48.364;-1.224;2023-09-18T06:12:13;98611.50;;;18.50;97.92
70544;BME280;58097;48.364;-1.224;2023-09-18T06:14:39;98613.84;;;18.53;97.43
70544;BME280;58097;48.364;-1.224;2023-09-18T06:17:05;98616.16;;;18.56;97.58
70544;BME280;58097;48.364;-1.224;2023-09-18T06:19:31;98619.81;;;18.56;97.75
70544;BME280;58097;48.364;-1.224;2023-09-18T06:21:56;98617.59;;;18.58;96.97
70544;BME280;58097;48.364;-1.224;2023-09-18T06:24:21;98626.97;;;18.52;96.46
70544;BME280;58097;48.364;-1.224;2023-09-18T06:26:47;98630.88;;;18.51;95.86
70544;BME280;58097;48.364;-1.224;2023-09-18T06:29:12;98631.09;;;18.50;96.35
70544;BME280;58097;48.364;-1.224;2023-09-18T06:31:38;98635.22;;;18.47;97.30
70544;BME280;58097;48.364;-1.224;2023-09-18T06:34:04;98623.69;;;18.44;97.92
70544;BME280;58097;48.364;-1.224;2023-09-18T06:36:29;98625.97;;;18.47;97.76
70544;BME280;58097;48.364;-1.224;2023-09-18T06:38:55;98632.19;;;18.49;97.96
70544;BME280;58097;48.364;-1.224;2023-09-18T06:41:20;98634.28;;;18.53;98.07
70544;BME280;58097;48.364;-1.224;2023-09-18T06:43:45;98635.75;;;18.56;98.32
70544;BME280;58097;48.364;-1.224;2023-09-18T06:46:11;98639.41;;;18.68;98.23
70544;BME280;58097;48.364;-1.224;2023-09-18T06:48:36;98644.75;;;18.70;98.24
70544;BME280;58097;48.364;-1.224;2023-09-18T06:51:01;98647.31;;;18.71;98.16
70544;BME280;58097;48.364;-1.224;2023-09-18T06:53:27;98657.50;;;18.77;97.73
70544;BME280;58097;48.364;-1.224;2023-09-18T06:55:53;98647.06;;;18.84;97.66
70544;BME280;58097;48.364;-1.224;2023-09-18T06:58:18;98660.94;;;18.79;97.60
70544;BME280;58097;48.364;-1.224;2023-09-18T07:00:44;98661.91;;;18.85;97.35
70544;BME280;58097;48.364;-1.224;2023-09-18T07:03:09;98660.81;;;18.86;97.45
70544;BME280;58097;48.364;-1.224;2023-09-18T07:05:35;98667.63;;;18.90;97.12
70544;BME280;58097;48.364;-1.224;2023-09-18T07:08:00;98664.94;;;18.95;97.19
70544;BME280;58097;48.364;-1.224;2023-09-18T07:10:26;98675.53;;;18.93;97.43
70544;BME280;58097;48.364;-1.224;2023-09-18T07:12:51;98679.13;;;19.05;97.76
70544;BME280;58097;48.364;-1.224;2023-09-18T07:15:17;98683.66;;;19.06;97.76
70544;BME280;58097;48.364;-1.224;2023-09-18T07:17:42;98685.47;;;19.12;97.36
70544;BME280;58097;48.364;-1.224;2023-09-18T07:20:08;98689.84;;;19.20;97.74
70544;BME280;58097;48.364;-1.224;2023-09-18T07:22:39;98686.16;;;19.31;97.37
70544;BME280;58097;48.364;-1.224;2023-09-18T07:25:05;98687.75;;;19.39;96.58
70544;BME280;58097;48.364;-1.224;2023-09-18T07:27:32;98691.59;;;19.49;96.63
70544;BME280;58097;48.364;-1.224;2023-09-18T07:29:57;98689.19;;;19.53;95.94
70544;BME280;58097;48.364;-1.224;2023-09-18T07:32:23;98691.94;;;19.65;96.00
70544;BME280;58097;48.364;-1.224;2023-09-18T07:34:49;98695.81;;;19.75;95.36
70544;BME280;58097;48.364;-1.224;2023-09-18T07:37:14;98705.41;;;19.79;95.32
70544;BME280;58097;48.364;-1.224;2023-09-18T07:39:46;98707.28;;;19.91;95.18
70544;BME280;58097;48.364;-1.224;2023-09-18T07:42:11;98704.63;;;19.96;94.70
70544;BME280;58097;48.364;-1.224;2023-09-18T07:44:37;98711.34;;;19.83;94.10
70544;BME280;58097;48.364;-1.224;2023-09-18T07:47:02;98712.13;;;19.78;93.93
70544;BME280;58097;48.364;-1.224;2023-09-18T07:49:28;98721.28;;;19.74;93.17
70544;BME280;58097;48.364;-1.224;2023-09-18T07:51:53;98724.69;;;19.76;93.15
70544;BME280;58097;48.364;-1.224;2023-09-18T07:54:18;98714.06;;;19.78;93.43
70544;BME280;58097;48.364;-1.224;2023-09-18T07:56:44;98721.03;;;19.75;93.20
70544;BME280;58097;48.364;-1.224;2023-09-18T08:00:05;98726.78;;;19.69;92.87
70544;BME280;58097;48.364;-1.224;2023-09-18T08:02:36;98738.09;;;19.74;92.80
70544;BME280;58097;48.364;-1.224;2023-09-18T08:05:03;98741.66;;;19.69;92.71
70544;BME280;58097;48.364;-1.224;2023-09-18T08:07:30;98741.41;;;19.59;92.14
70544;BME280;58097;48.364;-1.224;2023-09-18T08:09:56;98741.78;;;19.51;92.57
70544;BME280;58097;48.364;-1.224;2023-09-18T08:12:21;98742.41;;;19.53;92.81
70544;BME280;58097;48.364;-1.224;2023-09-18T08:14:46;98740.47;;;19.54;92.92
70544;BME280;58097;48.364;-1.224;2023-09-18T08:17:13;98746.66;;;19.56;93.01
70544;BME280;58097;48.364;-1.224;2023-09-18T08:19:39;98749.47;;;19.56;92.50
70544;BME280;58097;48.364;-1.224;2023-09-18T08:22:05;98749.47;;;19.56;92.74
70544;BME280;58097;48.364;-1.224;2023-09-18T08:24:31;98743.22;;;19.65;92.37
70544;BME280;58097;48.364;-1.224;2023-09-18T08:26:56;98753.56;;;19.65;91.65
70544;BME280;58097;48.364;-1.224;2023-09-18T08:29:22;98750.78;;;19.65;91.46
70544;BME280;58097;48.364;-1.224;2023-09-18T08:31:48;98755.91;;;19.68;91.50
70544;BME280;58097;48.364;-1.224;2023-09-18T08:34:14;98759.69;;;19.62;91.24
70544;BME280;58097;48.364;-1.224;2023-09-18T08:36:40;98763.34;;;19.62;90.72
70544;BME280;58097;48.364;-1.224;2023-09-18T08:39:05;98768.22;;;19.55;90.55
70544;BME280;58097;48.364;-1.224;2023-09-18T08:41:38;98767.13;;;19.56;90.94
70544;BME280;58097;48.364;-1.224;2023-09-18T08:44:07;98764.94;;;19.58;91.00
70544;BME280;58097;48.364;-1.224;2023-09-18T08:46:33;98767.75;;;19.58;91.02
70544;BME280;58097;48.364;-1.224;2023-09-18T08:49:00;98775.03;;;19.59;90.78
70544;BME280;58097;48.364;-1.224;2023-09-18T08:51:26;98761.38;;;19.63;90.07
70544;BME280;58097;48.364;-1.224;2023-09-18T08:53:53;98775.41;;;19.63;89.73
70544;BME280;58097;48.364;-1.224;2023-09-18T08:56:20;98775.28;;;19.58;89.68
70544;BME280;58097;48.364;-1.224;2023-09-18T08:58:46;98775.66;;;19.61;89.95
70544;BME280;58097;48.364;-1.224;2023-09-18T09:01:12;98768.22;;;19.55;88.55
70544;BME280;58097;48.364;-1.224;2023-09-18T09:03:42;98775.16;;;19.64;88.24
70544;BME280;58097;48.364;-1.224;2023-09-18T09:06:09;98778.19;;;19.74;88.26
70544;BME280;58097;48.364;-1.224;2023-09-18T09:08:35;98782.03;;;19.85;88.57
70544;BME280;58097;48.364;-1.224;2023-09-18T09:11:01;98779.25;;;19.85;87.72
70544;BME280;58097;48.364;-1.224;2023-09-18T09:13:27;98775.94;;;19.88;86.87
70544;BME280;58097;48.364;-1.224;2023-09-18T09:15:54;98785.78;;;19.91;86.41
70544;BME280;58097;48.364;-1.224;2023-09-18T09:18:23;98771.19;;;19.89;86.82
70544;BME280;58097;48.364;-1.224;2023-09-18T09:20:56;98780.78;;;19.93;87.25
70544;BME280;58097;48.364;-1.224;2023-09-18T09:23:24;98775.44;;;19.91;86.98
70544;BME280;58097;48.364;-1.224;2023-09-18T09:25:50;98775.69;;;19.90;86.60
70544;BME280;58097;48.364;-1.224;2023-09-18T09:28:16;98779.69;;;19.94;86.76
70544;BME280;58097;48.364;-1.224;2023-09-18T09:31:00;98775.78;;;19.95;86.75
70544;BME280;58097;48.364;-1.224;2023-09-18T09:33:26;98783.00;;;19.91;85.84
70544;BME280;58097;48.364;-1.224;2023-09-18T09:35:51;98773.88;;;19.95;86.39
70544;BME280;58097;48.364;-1.224;2023-09-18T09:38:17;98786.16;;;19.94;86.07
70544;BME280;58097;48.364;-1.224;2023-09-18T09:40:45;98789.81;;;19.95;86.72
70544;BME280;58097;48.364;-1.224;2023-09-18T09:43:12;98789.34;;;19.98;86.52
70544;BME280;58097;48.364;-1.224;2023-09-18T09:45:41;98784.81;;;19.97;86.03
70544;BME280;58097;48.364;-1.224;2023-09-18T09:48:07;98797.59;;;20.04;85.91
70544;BME280;58097;48.364;-1.224;2023-09-18T09:50:34;98792.59;;;20.06;86.13
70544;BME280;58097;48.364;-1.224;2023-09-18T09:53:09;98784.66;;;20.03;86.29
70544;BME280;58097;48.364;-1.224;2023-09-18T09:55:35;98796.66;;;19.99;85.08
70544;BME280;58097;48.364;-1.224;2023-09-18T09:58:03;98788.56;;;20.02;85.26
70544;BME280;58097;48.364;-1.224;2023-09-18T10:00:33;98792.84;;;20.05;85.22
70544;BME280;58097;48.364;-1.224;2023-09-18T10:03:06;98788.88;;;20.18;86.05
70544;BME280;58097;48.364;-1.224;2023-09-18T10:05:44;98792.31;;;20.36;85.40
70544;BME280;58097;48.364;-1.224;2023-09-18T10:08:16;98796.22;;;20.35;83.52
70544;BME280;58097;48.364;-1.224;2023-09-18T10:10:51;98802.44;;;20.37;83.17
70544;BME280;58097;48.364;-1.224;2023-09-18T10:13:38;98797.28;;;20.18;82.51
70544;BME280;58097;48.364;-1.224;2023-09-18T10:16:06;98809.06;;;20.03;83.45
70544;BME280;58097;48.364;-1.224;2023-09-18T10:18:40;98813.84;;;19.91;84.69
70544;BME280;58097;48.364;-1.224;2023-09-18T10:21:41;98820.09;;;19.81;85.97
70544;BME280;58097;48.364;-1.224;2023-09-18T10:24:24;98825.34;;;19.77;86.49
70544;BME280;58097;48.364;-1.224;2023-09-18T10:27:00;98831.84;;;19.66;86.51
70544;BME280;58097;48.364;-1.224;2023-09-18T10:29:29;98826.84;;;19.57;86.71
70544;BME280;58097;48.364;-1.224;2023-09-18T10:31:58;98828.78;;;19.44;87.37
70544;BME280;58097;48.364;-1.224;2023-09-18T10:34:24;98831.91;;;19.36;88.58
70544;BME280;58097;48.364;-1.224;2023-09-18T10:36:52;98828.28;;;19.12;89.58
70544;BME280;58097;48.364;-1.224;2023-09-18T10:39:18;98826.19;;;19.08;90.16
70544;BME280;58097;48.364;-1.224;2023-09-18T10:41:51;98827.16;;;19.02;90.46
70544;BME280;58097;48.364;-1.224;2023-09-18T10:44:17;98825.97;;;18.98;91.61
70544;BME280;58097;48.364;-1.224;2023-09-18T10:46:44;98836.06;;;18.99;91.22
70544;BME280;58097;48.364;-1.224;2023-09-18T10:49:10;98830.94;;;18.96;91.89
70544;BME280;58097;48.364;-1.224;2023-09-18T10:51:37;98823.03;;;19.04;92.39
70544;BME280;58097;48.364;-1.224;2023-09-18T10:54:08;98833.66;;;19.14;93.29
70544;BME280;58097;48.364;-1.224;2023-09-18T10:56:34;98842.28;;;19.24;93.30
70544;BME280;58097;48.364;-1.224;2023-09-18T10:59:00;98844.97;;;19.42;93.08
70544;BME280;58097;48.364;-1.224;2023-09-18T11:01:28;98843.13;;;19.48;91.84
70544;BME280;58097;48.364;-1.224;2023-09-18T11:03:58;98842.31;;;19.59;91.31
70544;BME280;58097;48.364;-1.224;2023-09-18T11:06:25;98845.94;;;19.60;90.61
70544;BME280;58097;48.364;-1.224;2023-09-18T11:08:59;98842.41;;;19.64;89.93
70544;BME280;58097;48.364;-1.224;2023-09-18T11:11:27;98846.66;;;19.78;89.84
70544;BME280;58097;48.364;-1.224;2023-09-18T11:13:56;98841.75;;;19.97;89.94
70544;BME280;58097;48.364;-1.224;2023-09-18T11:16:34;98847.41;;;20.14;89.77
70544;BME280;58097;48.364;-1.224;2023-09-18T11:19:12;98845.19;;;20.28;88.16
70544;BME280;58097;48.364;-1.224;2023-09-18T11:21:41;98836.84;;;20.45;87.75
70544;BME280;58097;48.364;-1.224;2023-09-18T11:26:42;98844.81;;;20.64;86.23
70544;BME280;58097;48.364;-1.224;2023-09-18T11:29:11;98846.00;;;20.68;85.20
70544;BME280;58097;48.364;-1.224;2023-09-18T11:31:43;98851.41;;;20.87;87.34
70544;BME280;58097;48.364;-1.224;2023-09-18T11:36:44;98857.22;;;21.47;87.21
70544;BME280;58097;48.364;-1.224;2023-09-18T11:39:10;98860.41;;;21.56;84.66
70544;BME280;58097;48.364;-1.224;2023-09-18T11:41:37;98858.56;;;21.45;83.36
70544;BME280;58097;48.364;-1.224;2023-09-18T11:46:32;98857.97;;;21.26;83.23
70544;BME280;58097;48.364;-1.224;2023-09-18T11:48:58;98842.56;;;21.12;81.53
70544;BME280;58097;48.364;-1.224;2023-09-18T11:51:25;98855.63;;;21.06;80.91
70544;BME280;58097;48.364;-1.224;2023-09-18T11:53:55;98860.31;;;21.00;81.13
70544;BME280;58097;48.364;-1.224;2023-09-18T11:56:21;98857.78;;;20.99;80.54
70544;BME280;58097;48.364;-1.224;2023-09-18T11:58:47;98856.69;;;21.17;82.47
70544;BME280;58097;48.364;-1.224;2023-09-18T12:01:13;98861.78;;;21.20;81.29
70544;BME280;58097;48.364;-1.224;2023-09-18T12:03:40;98856.34;;;21.13;79.53
70544;BME280;58097;48.364;-1.224;2023-09-18T12:06:06;98853.69;;;21.07;81.61
70544;BME280;58097;48.364;-1.224;2023-09-18T12:08:35;98849.38;;;21.16;81.49
70544;BME280;58097;48.364;-1.224;2023-09-18T12:11:04;98845.44;;;21.33;83.12
70544;BME280;58097;48.364;-1.224;2023-09-18T12:13:31;98841.72;;;21.45;82.43
70544;BME280;58097;48.364;-1.224;2023-09-18T12:16:03;98843.81;;;21.54;83.13
70544;BME280;58097;48.364;-1.224;2023-09-18T12:18:31;98850.88;;;21.57;83.30
70544;BME280;58097;48.364;-1.224;2023-09-18T12:20:57;98857.88;;;21.54;83.01
70544;BME280;58097;48.364;-1.224;2023-09-18T12:23:24;98867.59;;;21.47;82.71
70544;BME280;58097;48.364;-1.224;2023-09-18T12:25:57;98869.03;;;21.32;83.51
70544;BME280;58097;48.364;-1.224;2023-09-18T12:28:24;98878.09;;;21.06;83.21
70544;BME280;58097;48.364;-1.224;2023-09-18T12:30:52;98879.00;;;20.78;83.07
70544;BME280;58097;48.364;-1.224;2023-09-18T12:33:21;98901.53;;;20.66;83.51
70544;BME280;58097;48.364;-1.224;2023-09-18T12:35:47;98898.66;;;20.50;84.57
70544;BME280;58097;48.364;-1.224;2023-09-18T12:38:16;98903.09;;;20.34;85.81
70544;BME280;58097;48.364;-1.224;2023-09-18T12:40:43;98894.25;;;20.25;86.51
70544;BME280;58097;48.364;-1.224;2023-09-18T12:43:11;98891.44;;;20.14;86.76
70544;BME280;58097;48.364;-1.224;2023-09-18T12:45:37;98893.66;;;20.11;90.12
70544;BME280;58097;48.364;-1.224;2023-09-18T12:48:03;98893.75;;;20.28;92.85
70544;BME280;58097;48.364;-1.224;2023-09-18T12:50:29;98890.41;;;20.43;92.12
70544;BME280;58097;48.364;-1.224;2023-09-18T12:53:06;98889.53;;;20.54;91.39
70544;BME280;58097;48.364;-1.224;2023-09-18T12:55:32;98895.56;;;20.63;90.10
70544;BME280;58097;48.364;-1.224;2023-09-18T12:57:58;98886.59;;;20.78;89.47